Hovedside
METAR-TAF:

METAR-TAF

Lufthavner :

Ljungbyhed, Sverige

breddegrad: 56-04N, lengdegrad: 013-12E, høyde over havet: 43 m

Gjeldene værobservasjon

Denne rapporten ble laget for 24 minutter siden, klokken 11:20 UTC
Vind 10 kt fra Vest-nordvest
Temperatur 6°C
Luftfuktighet 65%
Trykk 1011 hPa
Sikt 10 km eller mer

METAR: ESTL 241120Z AUTO 29010KT 9999 SCT027/// 06/00 Q1011

Tid: 12:44 (11:44 UTC)

Varsel

Denne rapporten ble laget for 37 minutter siden, klokken 11:07 UTC
Varsel gyldig fra 24. klokken 12 UTC til 24. klokken 16 UTC
Vind 10 kt fra Vest-nordvest
Sikt 10 km eller mer
Få skyer i en høyde av 2500 ft

TAF: ESTL 241107Z 2412/2416 29010KT 9999 FEW025

Værobservasjoner og værvarsel for over 4000 flyplasser (METAR- og TAF-rapporter).

Tilgjengelige stasjoner er representert av de røde og gule prikkene på kartet.

Hold musepekeren over prikken for å se navnet på stasjonen.

Klikk så for å se værobservasjoner og -varsler.

For å forandre kartet kan du klikke på den grønne knappen med svart kryss for å zoome inn, på den grønne knappen med strek for å zoome ut, eller på de grønne pilene for å se tilstøtende kart.


METAR-TAF: